Airfield :
LOGIN :

Register | Disclaimer

   EN    FR    IT 

 










Legend :    VFR   Marginal VFR   IFR   Intensive IFR   Very Intensive IFR
Visi :
Ceiling :
>= 8 km
>= 3000ft
5 to 8 km
1000 to 3000 ft
1500m to 5 km
500 to 1000 ft
800 to 1500m
200 to 500 ft
< 800m
< 200 ft
Symbols :   Thunderstorms  Fog  Heavy snow  Heavy precipitations  Wind > 20 kt
SIGMETs :     Misc.  Thunderstorms  Icing  Turbulence  Mountain Waves  Volcanic Ashes






- Airport Elevation : 302 ft
- IATA code : CGN


EDDK - Cologne Bonn

CURRENT METAR :
  • 170150Z 14005KT 8000 -SN FEW014 BKN024 M02/M03 Q1016 R14L/290294 R06///99// R14R///99// NOSIG

EXPIRED METARs :
  • 170120Z 14006KT 9999 -SN BKN022 M02/M03 Q1016 R14L/290294 R06///99// R14R///99// NOSIG
  • 170050Z 14006KT 8000 -SN FEW006 SCT048 M02/M03 Q1016 R14L/290294 R06///99// R14R///99// TEMPO 4000
  • 170020Z 13007KT 8000 -SN FEW005 BKN026 M01/M03 Q1016 R14L/290294 R06///99// R14R///99// TEMPO 4000
  • 162350Z 14007KT 3500 -SN FEW006 SCT026 OVC033 M01/M03 Q1017 R14L/290294 R06///99// R14R///99// NOSIG
  • 162320Z 13007KT 8000 -SN FEW013 SCT026 BKN034 M01/M03 Q1017 R14L/290294 R06///99// R14R///99// TEMPO 4000 BR

TAF TAF EDDK
Valid from the 17 at 00:00 until the 18 at 06:00 UTC


162300Z 1700/1806 13005KT 6000 OVC025
TEMPO 1700/1706 4000 -SN BKN008
BECMG 1700/1703 BKN012
BECMG 1706/1709 2500 SNRA BKN007
PROB40
TEMPO 1708/1714 1200 DZ BR OVC003
BECMG 1711/1714 30006KT NSW
BECMG 1714/1716 3500 BR
BECMG 1718/1720 6000 BKN020
PROB40
TEMPO 1720/1804 4000 BR BKN008
BECMG 1803/1806 24005KT



MET'MAP, your aeronautical weather chart ! - Copyright ORBIFLY December 2007 - Disclaimer

ORBIFLY MET'MAP TEAM :

Programming & Development : Alexandra Zaïnal
Concept & original design : Baudouin d'Aumeries
Assistance for programming : Marc-Olivier Méhu
Technical & hardware support : Manuel Goepfert

Contact : metmap@orbifly.com




SOURCES & CREDITS :

   NOAA